Gough, Georgia
Current Conditions -  °F | °C
As of 5:53 PM on Thursday 20 Nov 2014 (Local Time) from KAGS Reporting Station
Clear Clear  
Wind Chill: 55°   Ceiling: Unl
Heat Index: 55°   Visibility: 10mi
Dew Point: 36°   Wind: 5mph
Humidity: 49%   Direction: 230°SW
Pressure: 30.16"   Gusts: NA
Location:  33.09°N, 82.23°W
Report Text: KAGS 202253Z 23004KT 10SM CLR 13/02 A3016 RMK AO2 SLP213 T01280022
Loading
Personal Weather Stations






























Interactive Weather Map New forecast layout! Learn more

10-Day Weather Forecast

Advertisements
Track Severe Weather on mobile